createdAt,value
2023-04-06T00:03:38.752Z,39.97
2023-04-06T00:08:42.386Z,38.70
2023-04-06T00:13:45.306Z,38.95
2023-04-06T00:18:49.576Z,39.03
2023-04-06T00:23:52.527Z,39.92
2023-04-06T00:28:55.511Z,39.05
2023-04-06T00:34:00.506Z,37.83
2023-04-06T00:39:03.407Z,38.55
2023-04-06T00:44:06.382Z,38.60
2023-04-06T00:49:10.795Z,38.60
2023-04-06T00:54:13.706Z,37.45
2023-04-06T00:59:16.696Z,38.80
2023-04-06T01:04:23.637Z,38.42
2023-04-06T01:09:29.132Z,37.47
2023-04-06T01:14:32.431Z,38.83
2023-04-06T01:19:38.567Z,37.47
2023-04-06T01:24:43.337Z,37.45
2023-04-06T01:29:50.860Z,38.95
2023-04-06T01:35:08.498Z,38.17
2023-04-06T01:40:18.099Z,39.65
2023-04-06T01:45:25.480Z,37.65
2023-04-06T01:50:32.760Z,38.10
2023-04-06T01:55:37.326Z,36.95
2023-04-06T02:00:53.925Z,37.88
2023-04-06T02:05:57.184Z,37.70
2023-04-06T02:11:07.627Z,38.28
2023-04-06T02:16:16.982Z,37.72
2023-04-06T02:21:21.881Z,38.08
2023-04-06T02:26:35.384Z,37.03
2023-04-06T02:31:38.314Z,37.78
2023-04-06T02:36:42.346Z,37.90
2023-04-06T02:41:46.579Z,37.63
2023-04-06T02:46:54.343Z,36.75
2023-04-06T02:51:58.794Z,40.00
2023-04-06T02:57:07.751Z,37.45
2023-04-06T03:02:15.955Z,40.25
2023-04-06T03:07:20.054Z,37.15
2023-04-06T03:12:24.518Z,38.30
2023-04-06T03:17:50.170Z,40.97
2023-04-06T03:23:08.224Z,37.63
2023-04-06T03:28:17.665Z,37.05
2023-04-06T03:33:33.223Z,37.55
2023-04-06T03:38:36.248Z,37.92
2023-04-06T03:43:46.740Z,37.03
2023-04-06T03:48:51.062Z,37.70
2023-04-06T03:53:56.151Z,36.92
2023-04-06T03:59:00.461Z,39.00
2023-04-06T04:04:03.445Z,37.05
2023-04-06T04:09:08.233Z,40.60
2023-04-06T04:14:12.615Z,36.30
2023-04-06T04:19:15.663Z,38.75
2023-04-06T04:24:18.631Z,37.55
2023-04-06T04:29:23.512Z,37.10
2023-04-06T04:34:27.911Z,41.22
2023-04-06T04:39:32.019Z,37.53
2023-04-06T04:44:41.256Z,38.58
2023-04-06T04:49:44.624Z,44.28
2023-04-06T04:54:51.780Z,41.35
2023-04-06T05:00:03.286Z,40.60
2023-04-06T05:05:07.948Z,39.25
2023-04-06T05:10:11.680Z,37.85
2023-04-06T05:15:26.014Z,38.15
2023-04-06T05:20:33.366Z,37.83
2023-04-06T05:25:36.749Z,39.00
2023-04-06T05:30:51.379Z,41.03
2023-04-06T05:35:54.886Z,37.72
2023-04-06T05:40:57.894Z,39.42
2023-04-06T05:46:06.399Z,37.47
2023-04-06T05:51:09.363Z,37.90
2023-04-06T05:56:19.828Z,37.83
2023-04-06T06:01:24.143Z,38.53
2023-04-06T06:06:28.009Z,37.88
2023-04-06T06:11:48.275Z,37.03
2023-04-06T06:16:55.379Z,38.38
2023-04-06T06:21:59.661Z,37.78
2023-04-06T06:27:02.739Z,37.70
2023-04-06T06:32:10.693Z,38.03
2023-04-06T06:37:15.176Z,39.50
2023-04-06T06:42:18.190Z,39.35
2023-04-06T06:47:36.146Z,42.90
2023-04-06T06:52:39.206Z,42.13
2023-04-06T06:57:43.445Z,43.42
2023-04-06T07:02:48.342Z,40.83
2023-04-06T07:07:51.456Z,43.22
2023-04-06T07:13:00.500Z,41.22
2023-04-06T07:18:05.507Z,40.35
2023-04-06T07:23:14.563Z,41.67
2023-04-06T07:28:17.568Z,42.83
2023-04-06T07:33:22.513Z,41.33
2023-04-06T07:38:25.548Z,41.55
2023-04-06T07:43:29.256Z,42.95
2023-04-06T07:48:33.961Z,44.88
2023-04-06T07:53:37.254Z,43.35
2023-04-06T07:58:40.287Z,41.65
2023-04-06T08:03:44.885Z,43.65
2023-04-06T08:08:47.874Z,42.30
2023-04-06T08:13:51.198Z,46.60
2023-04-06T08:18:55.542Z,43.03
2023-04-06T08:23:58.577Z,43.63
2023-04-06T08:29:01.528Z,40.90
2023-04-06T08:34:06.428Z,39.63
2023-04-06T08:39:09.639Z,40.63
2023-04-06T08:44:13.751Z,43.83
2023-04-06T08:49:18.609Z,43.83
2023-04-06T08:54:21.495Z,47.05
2023-04-06T08:59:25.904Z,40.90
2023-04-06T09:04:30.286Z,41.28
2023-04-06T09:09:33.236Z,45.72
2023-04-06T09:14:38.238Z,41.08
2023-04-06T09:19:49.159Z,41.72
2023-04-06T09:24:54.253Z,41.10
2023-04-06T09:30:05.389Z,42.95
2023-04-06T09:35:10.999Z,42.63
2023-04-06T09:40:15.433Z,42.00
2023-04-06T09:45:18.371Z,43.55
2023-04-06T09:50:23.079Z,42.30
2023-04-06T09:55:32.272Z,41.92
2023-04-06T10:00:43.534Z,40.75
2023-04-06T10:05:54.188Z,42.20
2023-04-06T10:10:57.792Z,41.42
2023-04-06T10:16:02.659Z,40.53
2023-04-06T10:21:12.524Z,41.03
2023-04-06T10:26:17.517Z,41.63
2023-04-06T10:31:27.115Z,41.25
2023-04-06T10:36:35.188Z,40.72
2023-04-06T10:41:42.818Z,42.08
2023-04-06T10:46:55.115Z,48.92
2023-04-06T10:51:59.871Z,44.92
2023-04-06T10:57:02.972Z,41.47
2023-04-06T11:02:06.792Z,40.38
2023-04-06T11:07:11.231Z,41.72
2023-04-06T11:12:23.369Z,40.50
2023-04-06T11:17:29.385Z,41.78
2023-04-06T11:22:33.796Z,40.95
2023-04-06T11:27:37.455Z,39.58
2023-04-06T11:32:43.375Z,40.38
2023-04-06T11:37:47.849Z,42.13
2023-04-06T11:42:55.806Z,45.05
2023-04-06T11:48:03.161Z,41.92
2023-04-06T11:53:07.559Z,41.97
2023-04-06T11:58:10.633Z,44.47
2023-04-06T12:03:13.898Z,43.85
2023-04-06T12:08:18.200Z,44.30
2023-04-06T12:13:21.366Z,42.95
2023-04-06T12:18:24.510Z,45.10
2023-04-06T12:23:28.818Z,41.83
2023-04-06T12:28:31.925Z,42.15
2023-04-06T12:33:34.855Z,44.60
2023-04-06T12:38:41.173Z,43.22
2023-04-06T12:43:45.380Z,41.40
2023-04-06T12:48:50.882Z,41.08
2023-04-06T12:53:56.053Z,42.13
2023-04-06T12:58:59.278Z,45.60
2023-04-06T13:04:04.347Z,43.22
2023-04-06T13:09:11.203Z,44.58
2023-04-06T13:14:14.169Z,44.00
2023-04-06T13:19:19.624Z,42.17
2023-04-06T13:24:24.260Z,43.13
2023-04-06T13:29:27.264Z,42.40
2023-04-06T13:34:30.713Z,43.83
2023-04-06T13:39:41.516Z,44.33
2023-04-06T13:44:47.499Z,43.53
2023-04-06T13:49:55.311Z,44.00
2023-04-06T13:55:00.763Z,44.20
2023-04-06T14:00:17.394Z,46.03
2023-04-06T14:05:23.077Z,45.17
2023-04-06T14:10:29.726Z,42.38
2023-04-06T14:15:33.180Z,43.20
2023-04-06T14:20:38.608Z,42.78
2023-04-06T14:25:43.211Z,43.45
2023-04-06T14:30:46.421Z,43.20
2023-04-06T14:35:51.765Z,43.08
2023-04-06T14:40:57.055Z,43.30
2023-04-06T14:46:02.771Z,42.75
2023-04-06T14:51:06.077Z,47.83
2023-04-06T14:56:10.910Z,45.17
2023-04-06T15:01:13.930Z,43.95
2023-04-06T15:06:17.936Z,43.65
2023-04-06T15:11:24.619Z,43.42
2023-04-06T15:16:27.787Z,43.40
2023-04-06T15:21:31.231Z,44.03
2023-04-06T15:26:46.497Z,43.92
2023-04-06T15:31:49.510Z,43.78
2023-04-06T15:36:53.872Z,45.95
2023-04-06T15:41:58.388Z,44.50
2023-04-06T15:47:01.340Z,44.80
2023-04-06T15:52:25.979Z,45.08
2023-04-06T15:57:30.299Z,43.60
2023-04-06T16:02:33.415Z,44.47
2023-04-06T16:07:36.645Z,45.00
2023-04-06T16:12:42.668Z,43.13
2023-04-06T16:17:45.802Z,43.45
2023-04-06T16:22:49.756Z,41.13
2023-04-06T16:27:54.073Z,41.53
2023-04-06T16:32:59.083Z,41.15
2023-04-06T16:38:02.242Z,43.30
2023-04-06T16:43:06.825Z,40.88
2023-04-06T16:48:09.830Z,41.40
2023-04-06T16:53:12.843Z,40.72
2023-04-06T16:58:17.161Z,40.92
2023-04-06T17:03:27.499Z,40.92
2023-04-06T17:08:32.071Z,40.95
2023-04-06T17:13:39.018Z,41.58
2023-04-06T17:18:41.990Z,40.85
2023-04-06T17:23:46.678Z,41.95
2023-04-06T17:28:51.290Z,42.78
2023-04-06T17:33:54.312Z,45.33
2023-04-06T17:38:57.413Z,44.40
2023-04-06T17:44:02.174Z,46.40
2023-04-06T17:49:08.404Z,42.10
2023-04-06T17:54:11.455Z,45.58
2023-04-06T17:59:16.119Z,43.15
2023-04-06T18:04:20.590Z,40.80
2023-04-06T18:09:23.716Z,41.78
2023-04-06T18:14:28.146Z,44.88
2023-04-06T18:19:34.621Z,41.78
2023-04-06T18:24:41.981Z,41.45
2023-04-06T18:29:49.120Z,42.85
2023-04-06T18:34:52.186Z,42.58
2023-04-06T18:39:55.716Z,42.03
2023-04-06T18:45:02.725Z,39.03
2023-04-06T18:50:06.353Z,43.72
2023-04-06T18:55:10.471Z,45.28
2023-04-06T19:00:17.257Z,42.35
2023-04-06T19:05:22.209Z,40.85
2023-04-06T19:10:28.565Z,42.08
2023-04-06T19:15:42.619Z,42.03
2023-04-06T19:20:45.614Z,40.47
2023-04-06T19:25:48.563Z,39.97
2023-04-06T19:30:55.512Z,41.85
2023-04-06T19:35:58.602Z,42.85
2023-04-06T19:41:02.260Z,42.35
2023-04-06T19:46:08.854Z,42.08
2023-04-06T19:51:11.935Z,43.65
2023-04-06T19:56:17.512Z,40.08
2023-04-06T20:01:58.311Z,41.17
2023-04-06T20:07:01.458Z,42.72
2023-04-06T20:12:04.800Z,40.85
2023-04-06T20:17:09.104Z,40.63
2023-04-06T20:22:14.235Z,40.70
2023-04-06T20:27:18.366Z,41.17
2023-04-06T20:32:22.950Z,41.50
2023-04-06T20:37:26.299Z,39.97
2023-04-06T20:42:29.990Z,40.95
2023-04-06T20:47:34.326Z,41.85
2023-04-06T20:52:38.073Z,41.22
2023-04-06T20:57:41.038Z,40.45
2023-04-06T21:02:45.651Z,39.92
2023-04-06T21:07:48.843Z,41.38
2023-04-06T21:12:52.020Z,41.25
2023-04-06T21:17:56.413Z,39.80
2023-04-06T21:22:59.339Z,40.33
2023-04-06T21:28:02.288Z,42.22
2023-04-06T21:33:07.163Z,40.40
2023-04-06T21:38:10.536Z,39.85
2023-04-06T21:43:13.555Z,40.00
2023-04-06T21:48:18.711Z,40.13
2023-04-06T21:53:21.651Z,39.80
2023-04-06T21:58:24.550Z,39.75
2023-04-06T22:03:29.210Z,39.45
2023-04-06T22:08:34.219Z,38.92
2023-04-06T22:13:37.801Z,39.53
2023-04-06T22:18:42.313Z,38.90
2023-04-06T22:23:45.390Z,39.13
2023-04-06T22:28:48.332Z,39.08
2023-04-06T22:33:52.607Z,39.58
2023-04-06T22:38:55.562Z,40.50
2023-04-06T22:43:58.452Z,38.88
2023-04-06T22:49:04.049Z,38.45
2023-04-06T22:54:07.049Z,39.05
2023-04-06T22:59:09.975Z,40.90
2023-04-06T23:04:14.313Z,39.20
2023-04-06T23:09:17.312Z,40.65
2023-04-06T23:14:20.320Z,39.20
2023-04-06T23:19:24.579Z,39.45
2023-04-06T23:24:27.832Z,39.22
2023-04-06T23:29:30.976Z,42.00
2023-04-06T23:34:35.259Z,40.05
2023-04-06T23:39:39.426Z,39.05
2023-04-06T23:44:42.330Z,49.13
2023-04-06T23:49:46.629Z,64.95
2023-04-06T23:54:49.537Z,41.08
2023-04-06T23:59:52.431Z,38.90
